• Join FlightAware (Why Join?)
  • Login
  • US Flag 
02:52AM EDT


 

Airport Tracker/Info


-or-


 

Live Flight TrackerFlight Track Log ✈ RPA4290 ✈ 05-Aug-2014 ✈ KORD - KEWR

Flight Track Log - Related Links

Times and Time Zones

All times are in EDT time to prevent confusion due to time zone crossing. See the RPA4290 flight status page for this flight to view local times or setup timezone preferences in your user account.

Time Position Orientation Groundspeed Altitude Reporting Facility
EDT Latitude Longitude Course Direction KTS MPH feet Rate Location/Type
02:39PM 42.0333 -88.0167 17° North 257 296 4,000  Level Chicago TRACON
02:40PM 42.1167 -88.0167 360° North 267 307 5,000 1,800 Climbing Chicago TRACON
02:41PM 42.4467 -87.7467 10° North  Level FlightAware Approximate
02:42PM 42.5648 -87.7029 12° North  Level FlightAware Approximate
02:42PM 42.2244 -88.0300 355° North 278 320 8,500  Level Chicago Center
02:43PM 42.6858 -87.6659 14° North  Level FlightAware Approximate
02:43PM 42.3042 -88.0331 358° North 285 328 11,600  Level Chicago Center
02:44PM 42.0666 -87.8633 North  Level FlightAware Approximate
02:44PM 42.3792 -88.0336 360° North 296 341 12,800  Level Chicago Center
02:45PM 42.1697 -87.8355 17° North  Level FlightAware Approximate
02:45PM 42.4964 -88.0336 360° North 345 397 15,800  Level Chicago Center
02:46PM 42.5772 -87.9461 39° Northeast 372 428 17,700 1,860 Climbing Chicago Center
02:47PM 42.6550 -87.8483 43° Northeast 380 437 19,700 1,860 Climbing Chicago Center
02:48PM 42.7369 -87.7467 42° Northeast 393 452 21,600 1,620 Climbing Chicago Center
02:49PM 42.8153 -87.6328 47° Northeast 416 479 23,100 1,560 Climbing Chicago Center
02:50PM 42.8472 -87.4386 77° East 449 517 24,900 1,440 Climbing Chicago Center
02:51PM 42.8661 -87.2675 81° East 456 525 26,100 1,200 Climbing Chicago Center
02:52PM 42.8844 -87.0925 82° East 466 536 27,500 1,320 Climbing Chicago Center
02:53PM 42.9019 -86.9164 82° East 470 541 28,900 1,320 Climbing Chicago Center
02:54PM 42.9200 -86.7422 82° East 469 540 30,300 1,380 Climbing Chicago Center
02:55PM 42.9425 -86.5328 82° East 469 540 31,800 1,140 Climbing Chicago Center
02:56PM 42.9586 -86.3594 83° East 467 537 32,700 540 Climbing Chicago Center
02:57PM 42.9747 -86.2022 82° East 462 532 33,000 120 Climbing Chicago Center
02:58PM 42.9917 -86.0194 83° East 481 554 33,000  Level Chicago Center
02:59PM 43.0119 -85.8086 82° East 473 544 33,000  Level Chicago Center
03:00PM 43.0286 -85.6322 83° East 470 541 33,000  Level Chicago Center
03:01PM 43.0439 -85.4569 83° East 469 540 33,000  Level Chicago Center
03:02PM 43.0600 -85.2814 83° East 467 537 33,000  Level Chicago Center
03:03PM 43.0758 -85.1053 83° East 465 535 33,000  Level Chicago Center
03:04PM 43.0906 -84.9308 83° East 465 535 33,000  Level Chicago Center
03:05PM 43.0964 -84.7119 88° East 484 557 33,000  Level Chicago Center
03:06PM 43.0969 -84.5258 90° East 488 562 33,000  Level Chicago Center
03:07PM 43.0972 -84.3392 90° East 489 563 33,000  Level Chicago Center
03:08PM 43.0958 -84.1522 91° East 490 564 33,000  Level Chicago Center
03:10PM 43.0931 -83.8753 91° East 490 564 33,000  Level Cleveland Center
03:11PM 43.0900 -83.6897 91° East 489 563 33,000  Level Cleveland Center
03:12PM 43.0881 -83.5056 91° East 487 560 33,000  Level Cleveland Center
03:13PM 43.0869 -83.3192 90° East 487 560 33,000  Level Cleveland Center
03:14PM 43.0839 -83.1328 91° East 488 562 33,000  Level Cleveland Center
03:15PM 43.0797 -82.9106 91° East 488 562 33,000  Level Cleveland Center
03:16PM 43.0778 -82.7261 91° East 487 560 33,000  Level Cleveland Center
03:17PM 43.0667 -82.5333 94° East 480 552 33,000  Level Toronto Center
03:18PM 43.0667 -82.3667 90° East 480 552 33,000  Level Toronto Center
03:19PM 43.0500 -82.1667 96° East 480 552 33,000  Level Toronto Center
03:20PM 43.0500 -82.0000 90° East 480 552 33,000  Level Toronto Center
03:21PM 43.0500 -81.8167 90° East 480 552 33,000  Level Toronto Center
03:22PM 43.0500 -81.6333 90° East 480 552 33,000  Level Toronto Center
03:23PM 43.0333 -81.4333 96° East 480 552 33,000  Level Toronto Center
03:24PM 43.0333 -81.2833 90° East 480 552 33,000  Level Toronto Center
03:25PM 43.0167 -81.1000 97° East 480 552 33,000  Level Toronto Center
03:26PM 43.0167 -80.8833 90° East 490 564 33,000  Level Toronto Center
03:27PM 43.0167 -80.7333 90° East 490 564 33,000  Level Toronto Center
03:28PM 43.0167 -80.5167 90° East 480 552 33,000  Level Toronto Center
03:29PM 43.0000 -80.3333 97° East 480 552 33,000  Level Toronto Center
03:30PM 43.0000 -80.1500 90° East 480 552 33,000  Level Toronto Center
03:31PM 42.9833 -79.9667 97° East 480 552 33,000  Level Toronto Center
03:32PM 42.9833 -79.8000 90° East 480 552 33,000  Level Toronto Center
03:33PM 42.9667 -79.6167 97° East 480 552 33,000  Level Toronto Center
03:34PM 42.9667 -79.4500 90° East 480 552 33,000  Level Toronto Center
03:35PM 42.9500 -79.2500 96° East 490 564 33,000  Level Toronto Center
03:36PM 42.9500 -79.0667 90° East 480 552 33,000  Level Toronto Center
03:37PM 42.9333 -78.8833 97° East 480 552 33,000  Level Toronto Center
03:38PM 42.9331 -78.7100 90° East 472 543 33,000 -60 Level Cleveland Center
03:39PM 42.9256 -78.5367 93° East 459 528 32,900 -1,260 Descending Cleveland Center
03:40PM 42.9242 -78.3539 91° East 480 552 30,500 -2,400 Descending Cleveland Center
03:41PM 42.9189 -78.1358 92° East 479 551 28,000 -1,200 Descending Cleveland Center
03:42PM 42.9147 -77.9525 92° East 481 554 28,000  Level Cleveland Center
03:43PM 42.9106 -77.7697 92° East 480 552 28,000 -540 Level Cleveland Center
03:44PM 42.9064 -77.5894 92° East 476 548 27,000 -540 Descending Cleveland Center
03:45PM 42.9014 -77.4122 92° East 464 534 27,000  Level Cleveland Center
03:47PM 42.8964 -77.2339 92° East 467 537 27,000  Level Cleveland Center
03:48PM 42.8967 -77.0564 90° East 467 537 27,000  Level Cleveland Center
03:49PM 42.8953 -76.8786 91° East 468 539 27,000  Level Cleveland Center
03:49PM 42.8969 -76.7775 89° East 461 531 27,000  Level Boston Center
03:50PM 42.8483 -76.6339 115° Southeast 427 491 27,000  Level Boston Center
03:51PM 42.7739 -76.5086 129° Southeast 426 490 27,000  Level Boston Center
03:52PM 42.6858 -76.3583 129° Southeast 425 489 27,000  Level Boston Center
03:53PM 42.6111 -76.2314 129° Southeast 427 491 27,000  Level Boston Center
03:54PM 42.5406 -76.1103 128° Southeast 429 494 27,000  Level Boston Center
03:55PM 42.4642 -75.9842 129° Southeast 430 495 27,000 -60 Level Boston Center
03:56PM 42.3917 -75.8614 129° Southeast 420 483 26,900 -780 Descending Boston Center
03:57PM 42.3197 -75.7400 129° Southeast 417 480 25,400 -1,980 Descending Boston Center
03:58PM 42.2328 -75.5953 129° Southeast 416 479 22,800 -2,280 Descending Boston Center
03:59PM 42.1631 -75.4817 130° Southeast 400 460 20,700 -2,040 Descending Boston Center
04:00PM 42.0961 -75.3706 129° Southeast 385 443 18,700 -1,380 Descending Boston Center
04:01PM 42.0394 -75.2536 123° Southeast 382 440 18,000 -360 Descending Boston Center
04:03PM 41.9872 -75.1144 117° Southeast 382 440 18,000  Level Boston Center
04:04PM 41.9339 -74.9747 117° Southeast 389 448 18,000 -660 Level Boston Center
04:05PM 41.8850 -74.8464 117° Southeast 387 445 16,700 -1,260 Descending Boston Center
04:06PM 41.8383 -74.7228 117° Southeast 376 433 15,400 -1,260 Descending Boston Center
04:07PM 41.7647 -74.6419 141° Southeast 326 375 14,100 -1,260 Descending Boston Center
04:08PM 41.6886 -74.5853 151° Southeast 317 365 12,900 -1,500 Descending Boston Center
04:09PM 41.6136 -74.5314 152° Southeast 311 358 11,100 -1,800 Descending Boston Center
04:10PM 41.5350 -74.4750 152° Southeast 301 346 9,200 -1,740 Descending Boston Center
04:11PM 41.4636 -74.4228 151° Southeast 296 341 7,600 -1,140 Descending Boston Center
04:12PM 41.3836 -74.4028 169° South 283 326 7,000 -840 Descending Boston Center
04:12PM 41.3333 -74.4000 178° South 278 320 6,200 -600 Descending New York TRACON
04:13PM 41.2667 -74.3833 169° South 276 318 6,000 -120 Descending New York TRACON
04:14PM 41.1833 -74.3500 163° South 277 319 6,000 -540 Level New York TRACON
04:15PM 41.1167 -74.3333 169° South 274 315 5,000 -540 Descending New York TRACON
04:16PM 41.0500 -74.2833 151° Southeast 277 319 5,000 -480 Level New York TRACON
04:17PM 40.9833 -74.2167 143° Southeast 272 313 4,100 -540 Descending New York TRACON
04:18PM 40.9333 -74.1500 135° Southeast 260 299 4,000 -180 Descending New York TRACON
04:20PM 40.8833 -74.1000 143° Southeast 200 230 3,800 -540 Descending New York TRACON
04:20PM 40.8500 -74.0667 143° Southeast 189 217 3,000 -900 Descending New York TRACON
04:21PM 40.8000 -74.1000 207° Southwest 192 221 2,200 -900 Descending New York TRACON
04:22PM 40.7500 -74.1333 207° Southwest 184 212 1,200 -840 Descending New York TRACON
04:23PM 40.7167 -74.1500 201° Southwest 145 167 600 -600 Descending New York TRACON